createdAt,value
2019-03-02T00:00:02.056Z,63.7
2019-03-02T00:00:46.349Z,63.7
2019-03-02T00:01:36.379Z,63.7
2019-03-02T00:02:29.558Z,63.7
2019-03-02T00:03:16.534Z,63.6
2019-03-02T00:04:13.519Z,63.6
2019-03-02T00:04:56.842Z,63.6
2019-03-02T00:05:45.880Z,63.6
2019-03-02T00:06:40.251Z,63.6
2019-03-02T00:07:26.804Z,63.6
2019-03-02T00:08:16.279Z,63.6
2019-03-02T00:09:06.626Z,63.6
2019-03-02T00:09:56.673Z,63.6
2019-03-02T00:10:50.241Z,63.6
2019-03-02T00:11:37.086Z,63.6
2019-03-02T00:12:33.946Z,63.6
2019-03-02T00:13:16.626Z,63.5
2019-03-02T00:14:06.975Z,63.5
2019-03-02T00:14:58.877Z,63.5
2019-03-02T00:15:46.798Z,63.5
2019-03-02T00:16:44.202Z,63.5
2019-03-02T00:17:27.199Z,63.5
2019-03-02T00:18:17.538Z,63.5
2019-03-02T00:19:12.295Z,63.5
2019-03-02T00:19:57.653Z,63.4
2019-03-02T00:20:57.230Z,63.4
2019-03-02T00:21:38.055Z,63.4
2019-03-02T00:22:28.201Z,63.4
2019-03-02T00:23:23.165Z,63.4
2019-03-02T00:24:07.978Z,63.4
2019-03-02T00:25:02.573Z,63.4
2019-03-02T00:25:48.383Z,63.4
2019-03-02T00:26:38.389Z,63.4
2019-03-02T00:27:28.226Z,63.4
2019-03-02T00:28:18.523Z,63.4
2019-03-02T00:29:14.677Z,63.4
2019-03-02T00:29:58.625Z,63.4
2019-03-02T00:30:48.401Z,63.3
2019-03-02T00:31:38.492Z,63.3
2019-03-02T00:32:27.752Z,63.3
2019-03-02T00:33:25.034Z,63.3
2019-03-02T00:34:08.454Z,63.3
2019-03-02T00:34:58.556Z,63.3
2019-03-02T00:35:49.469Z,63.3
2019-03-02T00:36:38.867Z,63.3
2019-03-02T00:37:35.917Z,63.3
2019-03-02T00:38:18.954Z,63.3
2019-03-02T00:39:09.030Z,63.3
2019-03-02T00:39:59.603Z,63.3
2019-03-02T00:40:49.157Z,63.3
2019-03-02T00:41:45.722Z,63.3
2019-03-02T00:42:28.702Z,63.2
2019-03-02T00:43:18.469Z,63.3
2019-03-02T00:44:09.153Z,63.2
2019-03-02T00:44:59.439Z,63.2
2019-03-02T00:45:53.131Z,63.2
2019-03-02T00:46:39.297Z,63.2
2019-03-02T00:47:36.820Z,63.2
2019-03-02T00:48:19.989Z,63.2
2019-03-02T00:49:09.726Z,63.1
2019-03-02T00:50:06.099Z,63.1
2019-03-02T00:50:50.089Z,63.1
2019-03-02T00:51:48.142Z,63.1
2019-03-02T00:52:30.244Z,63.1
2019-03-02T00:53:20.029Z,63.1
2019-03-02T00:54:16.151Z,63.1
2019-03-02T00:55:02.289Z,63.1
2019-03-02T00:55:49.345Z,63.1
2019-03-02T00:56:46.155Z,63.1
2019-03-02T00:57:30.003Z,63.1
2019-03-02T00:58:19.839Z,63.1
2019-03-02T00:59:09.855Z,63
2019-03-02T01:00:00.758Z,63
2019-03-02T01:00:57.666Z,63
2019-03-02T01:01:40.601Z,63
2019-03-02T01:02:30.346Z,63
2019-03-02T01:03:21.190Z,63
2019-03-02T01:04:10.258Z,63
2019-03-02T01:05:06.403Z,62.9
2019-03-02T01:05:50.355Z,62.9
2019-03-02T01:06:40.103Z,62.9
2019-03-02T01:07:31.061Z,62.9
2019-03-02T01:08:21.092Z,62.9
2019-03-02T01:09:16.858Z,62.9
2019-03-02T01:10:23.615Z,62.9
2019-03-02T01:10:50.704Z,62.9
2019-03-02T01:11:40.483Z,62.9
2019-03-02T01:12:31.080Z,62.9
2019-03-02T01:13:27.200Z,62.9
2019-03-02T01:14:10.898Z,62.9
2019-03-02T01:15:01.299Z,62.9
2019-03-02T01:15:51.317Z,62.9
2019-03-02T01:16:41.087Z,62.9
2019-03-02T01:17:35.388Z,62.8
2019-03-02T01:18:23.835Z,62.8
2019-03-02T01:19:10.978Z,62.8
2019-03-02T01:20:01.892Z,62.8
2019-03-02T01:20:52.012Z,62.8
2019-03-02T01:21:46.402Z,62.8
2019-03-02T01:22:32.077Z,62.8
2019-03-02T01:23:29.362Z,62.8
2019-03-02T01:24:11.882Z,62.8
2019-03-02T01:25:01.935Z,62.8
2019-03-02T01:25:53.585Z,62.8
2019-03-02T01:26:42.060Z,62.8
2019-03-02T01:27:38.605Z,62.7
2019-03-02T01:28:22.198Z,62.7
2019-03-02T01:29:18.980Z,62.7
2019-03-02T01:30:02.624Z,62.7
2019-03-02T01:30:52.357Z,62.7
2019-03-02T01:31:45.619Z,62.7
2019-03-02T01:32:32.759Z,62.7
2019-03-02T01:33:29.857Z,62.6
2019-03-02T01:34:13.209Z,62.6
2019-03-02T01:35:02.172Z,62.6
2019-03-02T01:35:58.686Z,62.6
2019-03-02T01:36:42.214Z,62.6
2019-03-02T01:37:33.106Z,62.6
2019-03-02T01:38:22.979Z,62.6
2019-03-02T01:39:12.439Z,62.6
2019-03-02T01:40:09.357Z,62.6
2019-03-02T01:40:53.116Z,62.6
2019-03-02T01:41:42.844Z,62.6
2019-03-02T01:42:34.426Z,62.6
2019-03-02T01:43:23.833Z,62.6
2019-03-02T01:44:20.411Z,62.6
2019-03-02T01:45:04.134Z,62.5
2019-03-02T01:45:53.143Z,62.5
2019-03-02T01:46:45.451Z,62.5
2019-03-02T01:47:34.078Z,62.5
2019-03-02T01:48:31.551Z,62.5
2019-03-02T01:49:13.674Z,62.5
2019-03-02T01:50:03.699Z,62.4
2019-03-02T01:50:53.490Z,62.4
2019-03-02T01:51:43.828Z,62.4
2019-03-02T01:52:38.843Z,62.4
2019-03-02T01:53:23.966Z,62.4
2019-03-02T01:54:14.013Z,62.4
2019-03-02T01:55:04.354Z,62.4
2019-03-02T01:55:54.410Z,62.4
2019-03-02T01:56:46.750Z,62.4
2019-03-02T01:57:34.878Z,62.4
2019-03-02T01:58:31.448Z,62.4
2019-03-02T01:59:14.713Z,62.4
2019-03-02T02:00:04.786Z,62.4
2019-03-02T02:00:54.225Z,62.3
2019-03-02T02:01:45.100Z,62.3
2019-03-02T02:02:40.310Z,62.3
2019-03-02T02:03:24.753Z,62.3
2019-03-02T02:04:14.435Z,62.3
2019-03-02T02:05:05.067Z,62.3
2019-03-02T02:05:54.832Z,62.3
2019-03-02T02:06:48.107Z,62.3
2019-03-02T02:07:34.945Z,62.3
2019-03-02T02:08:31.227Z,62.3
2019-03-02T02:09:15.059Z,62.3
2019-03-02T02:10:05.118Z,62.3
2019-03-02T02:10:54.369Z,62.3
2019-03-02T02:11:45.256Z,62.3
2019-03-02T02:12:35.564Z,62.2
2019-03-02T02:13:25.370Z,62.3
2019-03-02T02:14:22.274Z,62.2
2019-03-02T02:15:05.792Z,62.2
2019-03-02T02:15:55.537Z,62.2
2019-03-02T02:16:47.155Z,62.2
2019-03-02T02:17:35.641Z,62.1
2019-03-02T02:18:32.359Z,62.1
2019-03-02T02:19:16.059Z,62.2
2019-03-02T02:20:05.834Z,62.3
2019-03-02T02:20:56.222Z,62.3
2019-03-02T02:21:46.249Z,62.3
2019-03-02T02:22:42.577Z,62.4
2019-03-02T02:23:26.155Z,62.4
2019-03-02T02:24:15.874Z,62.4
2019-03-02T02:25:06.894Z,62.4
2019-03-02T02:25:56.001Z,62.4
2019-03-02T02:26:50.511Z,62.4
2019-03-02T02:27:36.648Z,62.4
2019-03-02T02:28:29.048Z,62.4
2019-03-02T02:29:16.482Z,62.5
2019-03-02T02:30:06.657Z,62.6
2019-03-02T02:31:07.626Z,62.6
2019-03-02T02:31:51.032Z,62.7
2019-03-02T02:32:36.762Z,62.7
2019-03-02T02:33:26.856Z,62.7
2019-03-02T02:34:27.776Z,62.8
2019-03-02T02:35:07.919Z,62.8
2019-03-02T02:35:57.283Z,62.8
2019-03-02T02:36:47.043Z,62.8
2019-03-02T02:37:42.831Z,62.8
2019-03-02T02:38:27.167Z,62.7
2019-03-02T02:39:17.541Z,62.8
2019-03-02T02:40:17.378Z,62.9
2019-03-02T02:40:56.806Z,62.9
2019-03-02T02:41:47.166Z,63
2019-03-02T02:42:47.155Z,63
2019-03-02T02:43:27.309Z,63
2019-03-02T02:44:17.883Z,63
2019-03-02T02:45:17.175Z,63.1
2019-03-02T02:45:59.392Z,63.1
2019-03-02T02:46:48.078Z,63
2019-03-02T02:47:37.815Z,63
2019-03-02T02:48:36.178Z,63
2019-03-02T02:49:18.228Z,63
2019-03-02T02:50:08.316Z,63.1
2019-03-02T02:50:57.868Z,63.1
2019-03-02T02:51:54.688Z,63.2
2019-03-02T02:52:38.201Z,63.3
2019-03-02T02:53:27.951Z,63.3
2019-03-02T02:54:28.026Z,63.3
2019-03-02T02:55:08.974Z,63.3
2019-03-02T02:55:58.961Z,63.3
2019-03-02T02:56:48.724Z,63.3
2019-03-02T02:57:44.237Z,63.3
2019-03-02T02:58:28.862Z,63.3
2019-03-02T02:59:18.938Z,63.3
2019-03-02T03:00:18.423Z,63.3
2019-03-02T03:01:01.238Z,63.3
2019-03-02T03:01:48.358Z,63.3
2019-03-02T03:02:38.405Z,63.3
2019-03-02T03:03:28.944Z,63.3
2019-03-02T03:04:19.279Z,63.4
2019-03-02T03:08:00.028Z,63.5
2019-03-02T03:08:41.155Z,63.5
2019-03-02T03:09:30.934Z,63.6
2019-03-02T03:10:31.150Z,63.5
2019-03-02T03:11:11.798Z,63.5
2019-03-02T03:12:01.188Z,63.5
2019-03-02T03:12:51.163Z,63.5
2019-03-02T03:13:45.739Z,63.5
2019-03-02T03:14:30.789Z,63.5
2019-03-02T03:15:21.619Z,63.5
2019-03-02T03:16:21.548Z,63.5
2019-03-02T03:17:00.986Z,63.5
2019-03-02T03:17:50.785Z,63.6
2019-03-02T03:18:41.402Z,63.6
2019-03-02T03:19:35.812Z,63.7
2019-03-02T03:20:20.998Z,63.8
2019-03-02T03:21:11.806Z,63.8
2019-03-02T03:22:12.384Z,63.8
2019-03-02T03:22:51.900Z,63.8
2019-03-02T03:23:41.453Z,63.8
2019-03-02T03:24:32.038Z,63.8
2019-03-02T03:25:23.751Z,63.8
2019-03-02T03:26:11.321Z,63.8
2019-03-02T03:27:02.318Z,63.8
2019-03-02T03:27:57.116Z,63.7
2019-03-02T03:28:41.499Z,63.8
2019-03-02T03:29:31.628Z,63.7
2019-03-02T03:30:42.216Z,63.7
2019-03-02T03:31:34.956Z,63.8
2019-03-02T03:32:16.149Z,63.7
2019-03-02T03:33:04.400Z,63.7
2019-03-02T03:33:51.734Z,63.7
2019-03-02T03:34:36.555Z,63.7
2019-03-02T03:35:24.852Z,63.7
2019-03-02T03:36:12.600Z,63.7
2019-03-02T03:37:02.669Z,63.7
2019-03-02T03:37:56.495Z,63.7
2019-03-02T03:38:43.311Z,63.7
2019-03-02T03:39:33.095Z,63.7
2019-03-02T03:40:30.284Z,63.7
2019-03-02T03:41:13.704Z,63.7
2019-03-02T03:42:03.316Z,63.7
2019-03-02T03:42:53.105Z,63.6
2019-03-02T03:43:48.205Z,63.6
2019-03-02T03:44:33.645Z,63.6
2019-03-02T03:45:23.215Z,63.6
2019-03-02T03:46:23.873Z,63.6
2019-03-02T03:47:06.028Z,63.6
2019-03-02T03:47:54.187Z,63.6
2019-03-02T03:48:42.837Z,63.6
2019-03-02T03:49:39.530Z,63.6
2019-03-02T03:50:24.071Z,63.6
2019-03-02T03:51:14.132Z,63.6
2019-03-02T03:52:14.417Z,63.6
2019-03-02T03:52:55.327Z,63.6
2019-03-02T03:53:44.722Z,63.6
2019-03-02T03:54:34.637Z,63.6
2019-03-02T03:55:31.577Z,63.6
2019-03-02T03:56:14.211Z,63.6
2019-03-02T03:57:04.556Z,63.6
2019-03-02T03:58:05.877Z,63.6
2019-03-02T03:58:46.196Z,63.5
2019-03-02T03:59:34.704Z,63.6
2019-03-02T04:00:24.222Z,63.6
2019-03-02T04:01:23.288Z,63.6
2019-03-02T04:02:04.887Z,63.5
2019-03-02T04:02:54.431Z,63.5
2019-03-02T04:03:54.225Z,63.5
2019-03-02T04:04:35.386Z,63.5
2019-03-02T04:05:25.393Z,63.5
2019-03-02T04:06:15.201Z,63.5
2019-03-02T04:07:12.211Z,63.5
2019-03-02T04:07:56.301Z,63.5
2019-03-02T04:08:45.364Z,63.5
2019-03-02T04:09:35.414Z,63.5
2019-03-02T04:10:32.138Z,63.4
2019-03-02T04:11:15.581Z,63.4
2019-03-02T04:12:08.668Z,63.4
2019-03-02T04:13:06.432Z,63.4
2019-03-02T04:13:50.946Z,63.4
2019-03-02T04:14:35.279Z,63.4
2019-03-02T04:15:26.086Z,63.4
2019-03-02T04:16:26.461Z,63.4
2019-03-02T04:17:06.747Z,63.4
2019-03-02T04:17:56.037Z,63.4
2019-03-02T04:18:45.264Z,63.4
2019-03-02T04:19:39.681Z,63.4
2019-03-02T04:20:25.935Z,63.4
2019-03-02T04:21:16.502Z,63.4
2019-03-02T04:22:12.183Z,63.4
2019-03-02T04:22:56.700Z,63.4
2019-03-02T04:23:46.158Z,63.4
2019-03-02T04:24:44.525Z,63.4
2019-03-02T04:25:26.663Z,63.3
2019-03-02T04:26:16.566Z,63.4
2019-03-02T04:27:06.370Z,63.3
2019-03-02T04:27:59.606Z,63.3
2019-03-02T04:28:46.998Z,63.3
2019-03-02T04:29:37.170Z,63.3
2019-03-02T04:30:37.232Z,63.3
2019-03-02T04:31:16.917Z,63.3
2019-03-02T04:32:06.431Z,63.3
2019-03-02T04:32:57.102Z,63.3
2019-03-02T04:33:48.294Z,63.3
2019-03-02T04:34:37.142Z,63.3
2019-03-02T04:35:35.337Z,63.3
2019-03-02T04:36:17.574Z,63.3
2019-03-02T04:37:07.581Z,63.3
2019-03-02T04:38:05.971Z,63.3
2019-03-02T04:38:47.214Z,63.3
2019-03-02T04:39:37.492Z,63.3
2019-03-02T04:40:32.250Z,63.3
2019-03-02T04:41:17.591Z,63.2
2019-03-02T04:42:07.637Z,63.3
2019-03-02T04:42:57.142Z,63.2
2019-03-02T04:43:53.890Z,63.2
2019-03-02T04:44:37.526Z,63.2
2019-03-02T04:45:27.919Z,63.2
2019-03-02T04:46:20.841Z,63.2
2019-03-02T04:47:07.728Z,63.2
2019-03-02T04:48:06.712Z,63.2
2019-03-02T04:48:48.096Z,63.2
2019-03-02T04:49:37.380Z,63.2
2019-03-02T04:50:32.576Z,63.1
2019-03-02T04:51:17.762Z,63.1
2019-03-02T04:52:08.057Z,63.1
2019-03-02T04:52:58.411Z,63.1
2019-03-02T04:53:47.928Z,63.1
2019-03-02T04:54:42.485Z,63.1
2019-03-02T04:55:28.338Z,63.1
2019-03-02T04:56:25.118Z,63.1
2019-03-02T04:57:07.878Z,63.1
2019-03-02T04:57:58.214Z,63.1
2019-03-02T04:58:51.460Z,63.1
2019-03-02T04:59:39.160Z,63.1
2019-03-02T05:00:35.746Z,63.1
2019-03-02T05:01:18.426Z,63.1
2019-03-02T05:02:08.775Z,63.1
2019-03-02T05:03:00.247Z,63.1
2019-03-02T05:03:48.880Z,63.1
2019-03-02T05:04:39.230Z,63
2019-03-02T05:05:29.293Z,63
2019-03-02T05:06:23.151Z,63
2019-03-02T05:07:08.827Z,63
2019-03-02T05:08:06.317Z,63
2019-03-02T05:08:49.517Z,63
2019-03-02T05:09:39.283Z,63
2019-03-02T05:10:33.695Z,63
2019-03-02T05:11:19.157Z,63
2019-03-02T05:12:15.523Z,63
2019-03-02T05:12:59.053Z,62.9
2019-03-02T05:13:49.312Z,62.9
2019-03-02T05:14:44.827Z,62.9
2019-03-02T05:15:29.975Z,62.9
2019-03-02T05:16:20.022Z,62.9
2019-03-02T05:17:12.919Z,62.9
2019-03-02T05:17:59.622Z,62.9
2019-03-02T05:18:57.420Z,62.9
2019-03-02T05:19:40.004Z,62.9
2019-03-02T05:20:29.489Z,62.9
2019-03-02T05:21:20.119Z,62.9
2019-03-02T05:22:10.224Z,62.9
2019-03-02T05:23:00.406Z,62.9
2019-03-02T05:23:50.017Z,62.9
2019-03-02T05:24:46.881Z,62.9
2019-03-02T05:25:30.681Z,62.9
2019-03-02T05:26:20.746Z,62.9
2019-03-02T05:27:10.249Z,62.9
2019-03-02T05:28:07.225Z,62.9
2019-03-02T05:28:50.889Z,62.8
2019-03-02T05:29:40.970Z,62.8
2019-03-02T05:30:35.494Z,62.8
2019-03-02T05:31:21.076Z,62.8
2019-03-02T05:32:19.580Z,62.8
2019-03-02T05:33:01.175Z,62.8
2019-03-02T05:33:51.024Z,62.8
2019-03-02T05:34:44.801Z,62.8
2019-03-02T05:35:30.845Z,62.8
2019-03-02T05:36:29.178Z,62.8
2019-03-02T05:37:11.250Z,62.8
2019-03-02T05:38:01.352Z,62.8
2019-03-02T05:38:51.353Z,62.8
2019-03-02T05:39:41.688Z,62.8
2019-03-02T05:40:34.186Z,62.8
2019-03-02T05:41:21.515Z,62.8
2019-03-02T05:42:18.521Z,62.8
2019-03-02T05:43:01.620Z,62.8
2019-03-02T05:43:51.128Z,62.8
2019-03-02T05:44:43.853Z,62.7
2019-03-02T05:45:32.089Z,62.7
2019-03-02T05:46:29.943Z,62.8
2019-03-02T05:47:11.930Z,62.7
2019-03-02T05:48:09.908Z,62.7
2019-03-02T05:48:51.495Z,62.7
2019-03-02T05:49:42.645Z,62.7
2019-03-02T05:50:35.700Z,62.7
2019-03-02T05:51:22.487Z,62.6
2019-03-02T05:52:18.694Z,62.6
2019-03-02T05:53:01.768Z,62.7
2019-03-02T05:53:51.928Z,62.6
2019-03-02T05:54:46.336Z,62.6
2019-03-02T05:55:33.042Z,62.6
2019-03-02T05:56:22.295Z,62.6
2019-03-02T05:57:12.892Z,62.6
2019-03-02T05:58:03.225Z,62.6
2019-03-02T05:58:56.077Z,62.6
2019-03-02T05:59:42.800Z,62.6
2019-03-02T06:00:40.500Z,62.6
2019-03-02T06:01:22.902Z,62.6
2019-03-02T06:02:19.735Z,62.6
2019-03-02T06:03:02.747Z,62.6
2019-03-02T06:03:52.834Z,62.6
2019-03-02T06:05:50.369Z,62.5
2019-03-02T06:06:40.954Z,62.6
2019-03-02T06:07:30.432Z,62.5
2019-03-02T06:08:21.304Z,62.5
2019-03-02T06:09:17.922Z,62.5
2019-03-02T06:10:00.735Z,62.5
2019-03-02T06:10:51.307Z,62.5
2019-03-02T06:11:45.202Z,62.5
2019-03-02T06:12:31.089Z,62.5
2019-03-02T06:13:30.777Z,62.5
2019-03-02T06:14:12.134Z,62.4
2019-03-02T06:15:08.657Z,62.5
2019-03-02T06:15:51.281Z,62.4
2019-03-02T06:16:41.331Z,62.4
2019-03-02T06:17:36.937Z,62.4
2019-03-02T06:18:21.731Z,62.4
2019-03-02T06:19:11.525Z,62.4
2019-03-02T06:20:04.413Z,62.4
2019-03-02T06:20:51.731Z,62.4
2019-03-02T06:21:48.036Z,62.4
2019-03-02T06:22:31.492Z,62.4
2019-03-02T06:23:22.353Z,62.4
2019-03-02T06:24:12.158Z,62.4
2019-03-02T06:25:02.253Z,62.4
2019-03-02T06:26:01.176Z,62.4
2019-03-02T06:26:41.476Z,62.4
2019-03-02T06:27:31.838Z,62.4
2019-03-02T06:28:27.591Z,62.4
2019-03-02T06:29:12.483Z,62.3
2019-03-02T06:30:09.337Z,62.3
2019-03-02T06:30:52.093Z,62.3
2019-03-02T06:31:42.661Z,62.3
2019-03-02T06:32:37.576Z,62.3
2019-03-02T06:33:22.533Z,62.3
2019-03-02T06:34:13.120Z,62.3
2019-03-02T06:35:03.012Z,62.3
2019-03-02T06:35:52.415Z,62.3
2019-03-02T06:36:49.655Z,62.3
2019-03-02T06:37:32.835Z,62.3
2019-03-02T06:38:23.148Z,62.3
2019-03-02T06:39:13.432Z,62.3
2019-03-02T06:40:03.398Z,62.3
2019-03-02T06:40:59.502Z,62.3
2019-03-02T06:41:43.150Z,62.3
2019-03-02T06:42:33.435Z,62.3
2019-03-02T06:43:26.900Z,62.3
2019-03-02T06:44:12.705Z,62.2
2019-03-02T06:45:10.081Z,62.2
2019-03-02T06:45:53.942Z,62.2
2019-03-02T06:46:43.779Z,62.2
2019-03-02T06:47:37.365Z,62.2
2019-03-02T06:48:23.832Z,62.2
2019-03-02T06:49:13.107Z,62.1
2019-03-02T06:50:04.907Z,62.1
2019-03-02T06:50:53.467Z,62.2
2019-03-02T06:51:51.262Z,62.1
2019-03-02T06:52:33.589Z,62.1
2019-03-02T06:53:24.220Z,62.1
2019-03-02T06:54:17.994Z,62.1
2019-03-02T06:55:04.397Z,62.1
2019-03-02T06:56:02.367Z,62.1
2019-03-02T06:56:44.434Z,62.1
2019-03-02T06:57:34.474Z,62.1
2019-03-02T06:58:33.709Z,62.1
2019-03-02T06:59:14.022Z,62.1
2019-03-02T07:00:04.333Z,62.1
2019-03-02T07:00:54.833Z,62.1
2019-03-02T07:01:46.700Z,62.1
2019-03-02T07:02:39.466Z,62.1
2019-03-02T07:03:24.618Z,62.1
2019-03-02T07:05:51.122Z,62
2019-03-02T07:06:46.848Z,62
2019-03-02T07:07:30.671Z,62
2019-03-02T07:08:20.473Z,62
2019-03-02T07:09:14.809Z,62
2019-03-02T07:10:01.428Z,62
2019-03-02T07:10:54.460Z,62
2019-03-02T07:11:40.690Z,61.9
2019-03-02T07:12:31.051Z,62
2019-03-02T07:13:25.746Z,61.9
2019-03-02T07:14:11.453Z,61.9
2019-03-02T07:15:00.863Z,61.9
2019-03-02T07:15:51.238Z,61.9
2019-03-02T07:16:41.478Z,61.9
2019-03-02T07:17:35.040Z,61.9
2019-03-02T07:18:21.423Z,61.9
2019-03-02T07:19:18.213Z,61.9
2019-03-02T07:20:01.872Z,61.9
2019-03-02T07:20:51.655Z,61.9
2019-03-02T07:21:45.908Z,61.9
2019-03-02T07:22:31.977Z,61.9
2019-03-02T07:23:24.390Z,61.9
2019-03-02T07:24:11.542Z,61.9
2019-03-02T07:25:09.493Z,61.9
2019-03-02T07:25:51.685Z,61.8
2019-03-02T07:26:41.707Z,61.9
2019-03-02T07:27:34.290Z,61.8
2019-03-02T07:28:22.085Z,61.8
2019-03-02T07:29:19.756Z,61.8
2019-03-02T07:30:01.967Z,61.8
2019-03-02T07:30:52.595Z,61.8
2019-03-02T07:31:42.617Z,61.8
2019-03-02T07:32:32.414Z,61.8
2019-03-02T07:33:22.814Z,61.8
2019-03-02T07:34:13.082Z,61.8
2019-03-02T07:35:02.600Z,61.8
2019-03-02T07:36:00.413Z,61.8
2019-03-02T07:36:42.144Z,61.7
2019-03-02T07:37:35.274Z,61.7
2019-03-02T07:38:25.747Z,61.7
2019-03-02T07:39:13.237Z,61.7
2019-03-02T07:40:10.163Z,61.6
2019-03-02T07:40:52.988Z,61.6
2019-03-02T07:41:43.064Z,61.6
2019-03-02T07:42:38.522Z,61.6
2019-03-02T07:43:22.718Z,61.6
2019-03-02T07:44:13.555Z,61.6
2019-03-02T07:45:03.442Z,61.6
2019-03-02T07:45:53.372Z,61.6
2019-03-02T07:46:51.306Z,61.6
2019-03-02T07:47:33.222Z,61.6
2019-03-02T07:48:23.519Z,61.6
2019-03-02T07:49:18.724Z,61.6
2019-03-02T07:50:03.319Z,61.6
2019-03-02T07:50:53.252Z,61.6
2019-03-02T07:51:46.743Z,61.6
2019-03-02T07:52:34.106Z,61.5
2019-03-02T07:53:32.381Z,61.5
2019-03-02T07:54:13.670Z,61.5
2019-03-02T07:55:04.037Z,61.5
2019-03-02T07:56:02.062Z,61.5
2019-03-02T07:56:43.943Z,61.5
2019-03-02T07:57:33.881Z,61.5
2019-03-02T07:58:25.438Z,61.5
2019-03-02T07:59:14.568Z,61.5
2019-03-02T08:00:10.522Z,61.4
2019-03-02T08:00:53.840Z,61.4
2019-03-02T08:01:44.171Z,61.4
2019-03-02T08:02:35.018Z,61.4
2019-03-02T08:03:25.698Z,61.4
2019-03-02T08:04:16.696Z,61.4
2019-03-02T08:05:04.840Z,61.4
2019-03-02T08:05:56.173Z,61.4
2019-03-02T08:06:44.795Z,61.4
2019-03-02T08:07:43.253Z,61.4
2019-03-02T08:08:24.363Z,61.4
2019-03-02T08:09:15.295Z,61.4
2019-03-02T08:10:07.713Z,61.4
2019-03-02T08:10:55.382Z,61.4
2019-03-02T08:11:52.093Z,61.4
2019-03-02T08:12:35.217Z,61.4
2019-03-02T08:13:25.296Z,61.4
2019-03-02T08:14:19.023Z,61.4
2019-03-02T08:15:05.195Z,61.3
2019-03-02T08:16:05.505Z,61.3
2019-03-02T08:16:46.053Z,61.3
2019-03-02T08:17:35.589Z,61.3
2019-03-02T08:18:33.159Z,61.3
2019-03-02T08:19:15.972Z,61.3
2019-03-02T08:20:05.552Z,61.3
2019-03-02T08:21:04.672Z,61.3
2019-03-02T08:21:46.137Z,61.3
2019-03-02T08:22:36.469Z,61.3
2019-03-02T08:23:25.698Z,61.3
2019-03-02T08:24:16.047Z,61.3
2019-03-02T08:25:05.851Z,61.3
2019-03-02T08:25:56.141Z,61.3
2019-03-02T08:26:46.481Z,61.3
2019-03-02T08:27:40.087Z,61.3
2019-03-02T08:28:26.910Z,61.3
2019-03-02T08:29:23.069Z,61.2
2019-03-02T08:30:06.462Z,61.2
2019-03-02T08:30:56.549Z,61.2
2019-03-02T08:31:50.644Z,61.2
2019-03-02T08:32:36.382Z,61.2
2019-03-02T08:33:26.661Z,61.2
2019-03-02T08:34:17.009Z,61.2
2019-03-02T08:35:06.251Z,61.2
2019-03-02T08:35:56.573Z,61.2
2019-03-02T08:36:50.229Z,61.1
2019-03-02T08:37:36.978Z,61.1
2019-03-02T08:38:27.108Z,61.1
2019-03-02T08:39:18.976Z,61.1
2019-03-02T08:40:07.748Z,61.1
2019-03-02T08:41:04.574Z,61.1
2019-03-02T08:41:46.981Z,61.1
2019-03-02T08:42:36.498Z,61.1
2019-03-02T08:43:27.658Z,61.1
2019-03-02T08:44:23.501Z,61.1
2019-03-02T08:45:06.999Z,61.1
2019-03-02T08:45:56.995Z,61.1
2019-03-02T08:46:47.881Z,61.1
2019-03-02T08:47:38.193Z,61.1
2019-03-02T08:48:27.738Z,61
2019-03-02T08:49:16.760Z,61.1
2019-03-02T08:50:07.830Z,61
2019-03-02T08:50:58.710Z,61
2019-03-02T08:51:47.695Z,61
2019-03-02T08:52:37.475Z,61
2019-03-02T08:53:28.073Z,61
2019-03-02T08:54:25.552Z,61
2019-03-02T08:55:08.193Z,61
2019-03-02T08:55:58.009Z,61
2019-03-02T08:56:52.821Z,61
2019-03-02T08:57:38.992Z,60.9
2019-03-02T08:58:29.340Z,60.9
2019-03-02T08:59:19.067Z,60.9
2019-03-02T09:00:09.033Z,60.9
2019-03-02T09:00:58.627Z,60.9
2019-03-02T09:01:55.825Z,60.9
2019-03-02T09:02:38.740Z,60.9
2019-03-02T09:03:37.145Z,60.9
2019-03-02T09:04:19.435Z,60.9
2019-03-02T09:05:08.902Z,60.9
2019-03-02T09:05:59.912Z,60.9
2019-03-02T09:06:48.267Z,60.9
2019-03-02T09:07:39.384Z,60.9
2019-03-02T09:08:29.404Z,60.9
2019-03-02T09:09:21.367Z,60.9
2019-03-02T09:10:15.031Z,60.8
2019-03-02T09:10:59.593Z,60.8
2019-03-02T09:11:50.406Z,60.9
2019-03-02T09:12:39.685Z,60.8
2019-03-02T09:13:36.637Z,60.8
2019-03-02T09:14:20.109Z,60.8
2019-03-02T09:15:09.617Z,60.8
2019-03-02T09:16:08.318Z,60.8
2019-03-02T09:16:50.040Z,60.8
2019-03-02T09:17:40.036Z,60.8
2019-03-02T09:18:49.594Z,60.8
2019-03-02T09:19:28.174Z,60.8
2019-03-02T09:20:12.497Z,60.8
2019-03-02T09:20:59.826Z,60.8
2019-03-02T09:21:52.986Z,60.8
2019-03-02T09:22:39.950Z,60.8
2019-03-02T09:23:36.111Z,60.8
2019-03-02T09:24:21.358Z,60.8
2019-03-02T09:25:09.630Z,60.7
2019-03-02T09:26:07.074Z,60.7
2019-03-02T09:26:49.673Z,60.7
2019-03-02T09:27:39.550Z,60.7
2019-03-02T09:28:29.513Z,60.7
2019-03-02T09:29:20.158Z,60.8
2019-03-02T09:30:10.656Z,60.8
2019-03-02T09:31:06.369Z,60.8
2019-03-02T09:31:51.203Z,60.8
2019-03-02T09:32:40.828Z,60.8
2019-03-02T09:33:33.568Z,60.8
2019-03-02T09:34:20.264Z,60.8
2019-03-02T09:35:18.268Z,60.8
2019-03-02T09:36:01.193Z,60.8
2019-03-02T09:36:51.185Z,60.8
2019-03-02T09:37:47.673Z,60.8
2019-03-02T09:38:31.927Z,60.7
2019-03-02T09:39:23.634Z,60.8
2019-03-02T09:40:17.358Z,60.7
2019-03-02T09:41:01.228Z,60.7
2019-03-02T09:41:51.796Z,60.7
2019-03-02T09:42:45.637Z,60.7
2019-03-02T09:43:31.600Z,60.7
2019-03-02T09:44:21.952Z,60.7
2019-03-02T09:45:16.705Z,60.7
2019-03-02T09:46:01.492Z,60.7
2019-03-02T09:46:52.409Z,60.7
2019-03-02T09:47:53.093Z,60.7
2019-03-02T09:48:31.949Z,60.7
2019-03-02T09:49:22.124Z,60.7
2019-03-02T09:50:18.142Z,60.7
2019-03-02T09:51:02.134Z,60.7
2019-03-02T09:51:53.132Z,60.7
2019-03-02T09:52:44.324Z,60.7
2019-03-02T09:53:32.872Z,60.7
2019-03-02T09:54:22.927Z,60.7
2019-03-02T09:55:20.216Z,60.6
2019-03-02T09:56:03.564Z,60.7
2019-03-02T09:56:52.266Z,60.6
2019-03-02T09:57:52.416Z,60.6
2019-03-02T09:58:33.895Z,60.6
2019-03-02T09:59:22.154Z,60.6
2019-03-02T10:00:15.257Z,60.6
2019-03-02T10:01:08.913Z,60.6
2019-03-02T10:01:53.432Z,60.6
2019-03-02T10:02:42.964Z,60.6
2019-03-02T10:03:34.026Z,60.6
2019-03-02T10:04:23.076Z,60.6
2019-03-02T10:06:53.771Z,60.6
2019-03-02T10:07:43.071Z,60.6
2019-03-02T10:08:30.526Z,60.6
2019-03-02T10:09:26.834Z,60.6
2019-03-02T10:10:10.361Z,60.6
2019-03-02T10:11:08.194Z,60.6
2019-03-02T10:11:51.038Z,60.6
2019-03-02T10:12:42.534Z,60.5
2019-03-02T10:13:30.911Z,60.6
2019-03-02T10:14:29.912Z,60.6
2019-03-02T10:15:10.971Z,60.5
2019-03-02T10:16:09.583Z,60.5
2019-03-02T10:16:51.098Z,60.6
2019-03-02T10:17:43.938Z,60.6
2019-03-02T10:18:31.817Z,60.6
2019-03-02T10:19:21.243Z,60.6
2019-03-02T10:20:11.601Z,60.6
2019-03-02T10:21:01.678Z,60.6
2019-03-02T10:21:52.940Z,60.6
2019-03-02T10:22:41.784Z,60.6
2019-03-02T10:23:31.266Z,60.7
2019-03-02T10:24:22.870Z,60.8
2019-03-02T10:25:11.955Z,60.8
2019-03-02T10:26:10.083Z,60.8
2019-03-02T10:26:51.775Z,60.9
2019-03-02T10:27:41.587Z,60.9
2019-03-02T10:28:38.523Z,61
2019-03-02T10:29:22.258Z,61.1
2019-03-02T10:30:11.752Z,61.1
2019-03-02T10:31:09.387Z,61.1
2019-03-02T10:31:52.144Z,61.2
2019-03-02T10:32:42.238Z,61.2
2019-03-02T10:33:37.122Z,61.2
2019-03-02T10:34:22.650Z,61.3
2019-03-02T10:35:18.732Z,61.3
2019-03-02T10:36:02.489Z,61.3
2019-03-02T10:36:52.769Z,61.3
2019-03-02T10:37:46.520Z,61.3
2019-03-02T10:38:34.937Z,61.3
2019-03-02T10:39:23.227Z,61.4
2019-03-02T10:40:13.432Z,61.4
2019-03-02T10:41:02.517Z,61.4
2019-03-02T10:42:03.497Z,61.5
2019-03-02T10:42:44.362Z,61.5
2019-03-02T10:43:33.254Z,61.5
2019-03-02T10:44:26.411Z,61.5
2019-03-02T10:45:12.787Z,61.6
2019-03-02T10:46:03.149Z,61.6
2019-03-02T10:46:54.183Z,61.6
2019-03-02T10:47:44.143Z,61.7
2019-03-02T10:48:33.329Z,61.8
2019-03-02T10:49:23.646Z,61.8
2019-03-02T10:50:14.705Z,61.8
2019-03-02T10:51:07.336Z,61.8
2019-03-02T10:51:54.129Z,61.9
2019-03-02T10:52:50.221Z,61.9
2019-03-02T10:53:33.656Z,61.9
2019-03-02T10:54:23.716Z,62
2019-03-02T10:55:17.338Z,62
2019-03-02T10:56:06.389Z,62.1
2019-03-02T10:56:59.787Z,62.1
2019-03-02T10:57:43.698Z,62.1
2019-03-02T10:58:41.765Z,62.1
2019-03-02T10:59:24.318Z,62.1
2019-03-02T11:00:14.421Z,62.1
2019-03-02T11:01:11.921Z,62.1
2019-03-02T11:01:54.543Z,62.1
2019-03-02T11:02:44.858Z,62.1
2019-03-02T11:03:37.120Z,62.1
2019-03-02T11:04:24.430Z,62.1
2019-03-02T11:05:20.072Z,62.1
2019-03-02T11:06:04.304Z,62.1
2019-03-02T11:06:55.247Z,62.1
2019-03-02T11:07:54.438Z,62.1
2019-03-02T11:08:34.998Z,62.1
2019-03-02T11:09:27.213Z,62.1
2019-03-02T11:10:21.298Z,62.1
2019-03-02T11:11:04.875Z,62.1
2019-03-02T11:11:54.468Z,62.1
2019-03-02T11:12:48.737Z,62.1
2019-03-02T11:13:35.195Z,62.1
2019-03-02T11:14:32.200Z,62.1
2019-03-02T11:15:15.767Z,62.1